Time;durP1;ratioP1;P1;durP2;ratioP2;P2;SDS_P1;SDS_P2;PMS_P1;PMS_P2;Temp;Humidity;BMP_temperature;BMP_pressure;BME280_temperature;BME280_humidity;BME280_pressure;Samples;Min_cycle;Max_cycle;Signal;HPM_P1;HPM_P2
2021/09/07 00:02:04;;;;;;;23.50;13.20;;;15.70;99.90;;;;;;5051772;28;20044;-82
2021/09/07 00:04:29;;;;;;;19.85;13.77;;;15.80;99.90;;;;;;5052108;28;20045;-81
2021/09/07 00:06:59;;;;;;;25.85;13.95;;;15.80;99.90;;;;;;5070038;28;20500;-81
2021/09/07 00:09:25;;;;;;;21.40;13.82;;;15.80;99.90;;;;;;5034825;28;20139;-82
2021/09/07 00:11:50;;;;;;;25.30;14.15;;;15.70;99.90;;;;;;5049432;28;20150;-84
2021/09/07 00:14:16;;;;;;;21.25;13.93;;;15.80;99.90;;;;;;5067033;28;20554;-84
2021/09/07 00:16:42;;;;;;;20.58;14.73;;;15.80;99.90;;;;;;5065913;28;20094;-81
2021/09/07 00:19:08;;;;;;;20.88;14.25;;;15.90;99.90;;;;;;5067239;28;20076;-84
2021/09/07 00:21:34;;;;;;;24.73;14.40;;;15.90;99.90;;;;;;5058356;28;20421;-80
2021/09/07 00:24:00;;;;;;;19.17;13.85;;;15.90;99.90;;;;;;5044306;28;20088;-82
2021/09/07 00:26:25;;;;;;;20.95;13.93;;;16.00;99.90;;;;;;5031754;28;20128;-82
2021/09/07 00:28:51;;;;;;;21.83;14.50;;;15.90;99.90;;;;;;5048082;28;20048;-80
2021/09/07 00:31:17;;;;;;;21.73;14.32;;;15.90;99.90;;;;;;5041797;28;20086;-81
2021/09/07 00:33:42;;;;;;;22.48;15.10;;;15.90;99.90;;;;;;5045934;28;20037;-84
2021/09/07 00:36:08;;;;;;;21.98;14.20;;;16.00;99.90;;;;;;5045312;28;20045;-81
2021/09/07 00:38:33;;;;;;;21.13;13.98;;;16.00;99.90;;;;;;5046199;28;20041;-83
2021/09/07 00:40:59;;;;;;;22.98;14.85;;;16.00;99.90;;;;;;5026051;28;20041;-83
2021/09/07 00:43:25;;;;;;;21.73;13.98;;;16.00;99.90;;;;;;5027174;28;20040;-84
2021/09/07 00:45:50;;;;;;;25.95;14.80;;;16.00;99.90;;;;;;5045821;28;20033;-81
2021/09/07 00:48:16;;;;;;;21.15;14.32;;;16.00;99.90;;;;;;5047453;28;20034;-81
2021/09/07 00:50:42;;;;;;;20.55;13.52;;;16.00;99.90;;;;;;5047758;28;20040;-80
2021/09/07 00:53:08;;;;;;;21.35;14.27;;;16.00;99.90;;;;;;5030980;28;20052;-80
2021/09/07 00:55:35;;;;;;;21.52;14.15;;;15.90;99.90;;;;;;5029228;28;20143;-84
2021/09/07 00:58:05;;;;;;;21.88;15.30;;;16.00;99.90;;;;;;5048446;28;20085;-81
2021/09/07 01:00:31;;;;;;;23.42;14.82;;;16.00;99.90;;;;;;5039073;28;20069;-83
2021/09/07 01:02:57;;;;;;;22.60;13.20;;;16.00;99.90;;;;;;5032060;28;20419;-80
2021/09/07 01:05:23;;;;;;;20.77;13.65;;;16.00;99.90;;;;;;5038244;28;20061;-81
2021/09/07 01:07:48;;;;;;;23.00;13.48;;;16.00;99.90;;;;;;5020358;28;20040;-81
2021/09/07 01:10:14;;;;;;;21.23;14.00;;;16.00;99.90;;;;;;5042466;28;20029;-83
2021/09/07 01:12:40;;;;;;;19.98;14.15;;;16.00;99.90;;;;;;5046720;28;20136;-81
2021/09/07 01:15:07;;;;;;;21.70;13.43;;;16.00;99.90;;;;;;5032203;28;20057;-82
2021/09/07 01:17:34;;;;;;;29.35;14.20;;;16.00;99.90;;;;;;5046584;28;20075;-82
2021/09/07 01:19:59;;;;;;;21.05;14.13;;;16.00;99.90;;;;;;5047172;28;20183;-82
2021/09/07 01:22:25;;;;;;;23.23;14.48;;;16.00;99.90;;;;;;5036155;28;20135;-83
2021/09/07 01:24:52;;;;;;;20.20;13.75;;;16.00;99.90;;;;;;5044464;28;20048;-83
2021/09/07 01:27:21;;;;;;;24.05;14.15;;;16.00;99.90;;;;;;5069134;28;20049;-81
2021/09/07 01:29:48;;;;;;;24.23;15.00;;;16.00;99.90;;;;;;5050624;28;20067;-81
2021/09/07 01:32:15;;;;;;;22.05;14.35;;;16.00;99.90;;;;;;5068708;28;20048;-80
2021/09/07 01:34:41;;;;;;;23.08;14.90;;;16.00;99.90;;;;;;5069973;28;20111;-81
2021/09/07 01:37:10;;;;;;;25.02;15.68;;;16.00;99.90;;;;;;5066395;28;20033;-82
2021/09/07 01:39:39;;;;;;;26.42;15.13;;;16.00;99.90;;;;;;5065111;28;20040;-80
2021/09/07 01:42:06;;;;;;;20.52;14.77;;;16.00;99.90;;;;;;5064839;28;20040;-82
2021/09/07 01:44:32;;;;;;;22.13;14.25;;;16.00;99.90;;;;;;5029555;28;20028;-80
2021/09/07 01:46:58;;;;;;;21.23;13.30;;;16.00;99.90;;;;;;5070500;28;20123;-82
2021/09/07 01:49:24;;;;;;;22.63;14.30;;;16.00;99.90;;;;;;5054243;28;20146;-83
2021/09/07 01:51:49;;;;;;;23.65;14.30;;;16.00;99.90;;;;;;5054769;28;20060;-80
2021/09/07 01:54:15;;;;;;;19.90;13.93;;;16.00;99.90;;;;;;5055009;28;20124;-82
2021/09/07 01:56:42;;;;;;;23.33;13.48;;;16.00;99.90;;;;;;5062594;28;20036;-82
2021/09/07 01:59:08;;;;;;;20.58;13.15;;;16.00;99.90;;;;;;5053401;28;20360;-81
2021/09/07 02:01:35;;;;;;;20.35;14.10;;;15.90;99.90;;;;;;5056699;28;20040;-81
2021/09/07 02:04:00;;;;;;;19.67;14.20;;;16.00;99.90;;;;;;5054062;28;20380;-83
2021/09/07 02:06:26;;;;;;;18.60;13.75;;;16.00;99.90;;;;;;5070674;28;20028;-81
2021/09/07 02:08:52;;;;;;;21.30;13.35;;;15.90;99.90;;;;;;5042895;28;20451;-85
2021/09/07 02:11:18;;;;;;;22.15;14.32;;;15.90;99.90;;;;;;5044921;28;20028;-83
2021/09/07 02:13:43;;;;;;;20.63;14.40;;;15.90;99.90;;;;;;5068708;28;20071;-81
2021/09/07 02:16:09;;;;;;;23.92;15.27;;;16.00;99.90;;;;;;5070080;28;20040;-82
2021/09/07 02:18:35;;;;;;;22.48;14.18;;;15.90;99.90;;;;;;5069780;28;20051;-82
2021/09/07 02:21:01;;;;;;;26.35;15.27;;;15.90;99.90;;;;;;5063475;28;20209;-82
2021/09/07 02:23:27;;;;;;;23.23;14.90;;;16.00;99.90;;;;;;5028581;28;1158283;-84
2021/09/07 02:25:53;;;;;;;21.08;13.98;;;15.90;99.90;;;;;;5041060;28;20059;-81
2021/09/07 02:28:19;;;;;;;23.42;15.05;;;16.00;99.90;;;;;;5065804;28;20031;-81
2021/09/07 02:30:44;;;;;;;24.40;14.48;;;15.90;99.90;;;;;;5073932;28;20043;-83
2021/09/07 02:33:10;;;;;;;22.60;14.82;;;15.90;99.90;;;;;;5072537;28;20064;-80
2021/09/07 02:35:36;;;;;;;24.33;15.52;;;16.00;99.90;;;;;;5037710;28;20040;-81
2021/09/07 02:38:05;;;;;;;20.40;14.23;;;16.00;99.90;;;;;;5055631;28;20044;-81
2021/09/07 02:40:30;;;;;;;21.85;14.75;;;16.10;99.90;;;;;;5040923;28;20040;-83
2021/09/07 02:42:56;;;;;;;21.00;14.40;;;15.90;99.90;;;;;;5043592;28;20045;-79
2021/09/07 02:45:22;;;;;;;23.13;14.35;;;16.00;99.90;;;;;;5070719;28;20098;-81
2021/09/07 02:47:48;;;;;;;20.63;14.27;;;16.00;99.90;;;;;;5051342;28;20076;-84
2021/09/07 02:50:16;;;;;;;20.33;13.75;;;15.90;99.90;;;;;;5075709;28;20040;-83
2021/09/07 02:52:42;;;;;;;21.10;13.32;;;16.00;99.90;;;;;;5040292;28;20044;-83
2021/09/07 02:55:09;;;;;;;20.95;13.98;;;16.00;99.90;;;;;;5071601;28;20341;-84
2021/09/07 02:57:38;;;;;;;21.52;14.38;;;16.00;99.90;;;;;;5081722;28;20090;-80
2021/09/07 03:00:05;;;;;;;21.75;14.52;;;15.90;99.90;;;;;;5075148;28;20474;-80
2021/09/07 03:02:31;;;;;;;24.02;14.82;;;15.90;99.90;;;;;;5070514;28;20506;-81
2021/09/07 03:04:57;;;;;;;22.65;14.40;;;15.90;99.90;;;;;;5057808;28;20040;-81
2021/09/07 03:07:22;;;;;;;21.60;14.32;;;16.00;99.90;;;;;;5048482;28;20364;-82
2021/09/07 03:09:48;;;;;;;19.38;13.85;;;16.10;99.90;;;;;;5058118;28;20032;-82
2021/09/07 03:12:14;;;;;;;28.98;15.23;;;15.90;99.90;;;;;;5050272;28;20480;-84
2021/09/07 03:14:39;;;;;;;22.10;14.30;;;15.90;99.90;;;;;;5050790;28;20043;-81
2021/09/07 03:17:05;;;;;;;20.27;14.15;;;15.90;99.90;;;;;;5066534;28;20052;-82
2021/09/07 03:19:31;;;;;;;22.00;13.80;;;15.90;99.90;;;;;;5051306;28;20037;-83
2021/09/07 03:21:56;;;;;;;18.83;13.80;;;15.90;99.90;;;;;;5065453;28;20118;-83
2021/09/07 03:24:22;;;;;;;22.35;14.45;;;15.90;99.90;;;;;;5073778;28;20106;-82
2021/09/07 03:26:48;;;;;;;21.88;14.40;;;15.90;99.90;;;;;;5057461;28;20388;-81
2021/09/07 03:29:14;;;;;;;22.13;15.07;;;15.90;99.90;;;;;;5055324;28;20527;-82
2021/09/07 03:31:40;;;;;;;21.52;14.52;;;15.90;99.90;;;;;;5057566;28;20039;-83
2021/09/07 03:34:06;;;;;;;21.25;13.88;;;15.80;99.90;;;;;;5056173;28;20347;-82
2021/09/07 03:36:32;;;;;;;22.38;13.48;;;15.80;99.90;;;;;;5056184;28;20429;-81
2021/09/07 03:38:58;;;;;;;22.20;14.77;;;15.80;99.90;;;;;;5051787;28;20138;-85
2021/09/07 03:41:24;;;;;;;21.38;14.38;;;15.80;99.90;;;;;;5056953;28;20040;-80
2021/09/07 03:43:50;;;;;;;22.05;14.13;;;15.80;99.90;;;;;;5053145;28;20407;-84
2021/09/07 03:46:15;;;;;;;21.27;14.75;;;15.80;99.90;;;;;;5050743;28;20448;-84
2021/09/07 03:48:41;;;;;;;22.80;14.30;;;15.80;99.90;;;;;;5072347;28;20119;-80
2021/09/07 03:51:07;;;;;;;24.02;14.77;;;15.80;99.90;;;;;;5066520;28;20131;-81
2021/09/07 03:53:33;;;;;;;21.15;14.65;;;15.80;99.90;;;;;;5050157;28;20471;-83
2021/09/07 03:55:59;;;;;;;22.73;14.88;;;15.80;99.90;;;;;;5087742;28;20075;-82
2021/09/07 03:58:25;;;;;;;21.33;14.18;;;15.80;99.90;;;;;;5091177;28;20035;-80
2021/09/07 04:00:51;;;;;;;25.83;14.73;;;15.80;99.90;;;;;;5067300;28;20421;-84
2021/09/07 04:03:19;;;;;;;22.05;14.75;;;15.80;99.90;;;;;;5046815;28;20055;-81
2021/09/07 04:05:45;;;;;;;21.55;15.38;;;15.80;99.90;;;;;;5072523;28;20519;-79
2021/09/07 04:08:11;;;;;;;21.42;13.93;;;15.80;99.90;;;;;;5055590;28;20044;-83
2021/09/07 04:10:38;;;;;;;20.17;13.32;;;15.80;99.90;;;;;;5044690;28;20123;-82
2021/09/07 04:13:03;;;;;;;23.10;14.40;;;15.80;99.90;;;;;;5068404;28;20035;-83
2021/09/07 04:15:29;;;;;;;20.58;14.18;;;15.80;99.90;;;;;;5047121;28;20398;-84
2021/09/07 04:17:55;;;;;;;26.33;13.95;;;15.70;99.90;;;;;;5054948;28;20100;-82
2021/09/07 04:20:21;;;;;;;22.63;14.40;;;15.70;99.90;;;;;;5070229;28;20044;-83
2021/09/07 04:22:47;;;;;;;18.83;14.15;;;15.80;99.90;;;;;;5072744;28;20032;-83
2021/09/07 04:25:13;;;;;;;20.10;14.95;;;15.80;99.90;;;;;;5054710;28;20040;-81
2021/09/07 04:27:38;;;;;;;21.67;14.90;;;15.80;99.90;;;;;;5054644;28;20156;-84
2021/09/07 04:30:06;;;;;;;20.48;13.80;;;15.80;99.90;;;;;;5065905;28;20385;-83
2021/09/07 04:32:32;;;;;;;22.77;14.90;;;15.70;99.90;;;;;;5041549;28;20102;-81
2021/09/07 04:34:57;;;;;;;20.00;14.50;;;15.80;99.90;;;;;;5051763;28;20071;-84
2021/09/07 04:37:23;;;;;;;24.52;14.02;;;15.80;99.90;;;;;;5054151;28;20040;-81
2021/09/07 04:39:50;;;;;;;24.05;14.55;;;15.80;99.90;;;;;;5045971;28;20040;-80
2021/09/07 04:42:17;;;;;;;20.98;14.13;;;15.80;99.90;;;;;;5048772;28;20041;-84
2021/09/07 04:44:43;;;;;;;18.35;13.55;;;15.80;99.90;;;;;;5071909;28;20031;-81
2021/09/07 04:47:09;;;;;;;26.88;15.10;;;15.80;99.90;;;;;;5064726;28;20040;-82
2021/09/07 04:49:35;;;;;;;24.70;15.82;;;15.80;99.90;;;;;;5051415;28;20059;-83
2021/09/07 04:52:00;;;;;;;25.13;14.13;;;15.80;99.90;;;;;;5047753;28;20824;-84
2021/09/07 04:54:26;;;;;;;21.63;14.68;;;15.80;99.90;;;;;;5071500;28;20036;-81
2021/09/07 04:56:52;;;;;;;21.95;14.05;;;15.70;99.90;;;;;;5088389;28;20055;-80
2021/09/07 04:59:17;;;;;;;23.80;15.55;;;15.80;99.90;;;;;;5066143;28;20036;-84
2021/09/07 05:01:43;;;;;;;22.83;15.02;;;15.80;99.90;;;;;;5044846;28;20033;-81
2021/09/07 05:04:09;;;;;;;22.15;14.43;;;15.70;99.90;;;;;;5048769;28;20492;-86
2021/09/07 05:06:35;;;;;;;15.95;8.82;;;15.70;99.90;;;;;;5060571;28;20063;-78
2021/09/07 05:09:01;;;;;;;14.00;10.00;;;15.90;99.90;;;;;;5039094;28;20891;-80
2021/09/07 05:11:29;;;;;;;18.77;9.90;;;16.10;99.90;;;;;;5054663;28;20044;-78
2021/09/07 05:13:56;;;;;;;9.85;7.53;;;16.50;99.90;;;;;;5067578;28;20490;-76
2021/09/07 05:16:24;;;;;;;18.08;6.85;;;16.80;99.90;;;;;;5045805;28;20438;-77
2021/09/07 05:18:50;;;;;;;10.55;6.82;;;16.90;99.90;;;;;;5041779;28;20475;-77
2021/09/07 05:21:15;;;;;;;11.57;7.43;;;17.20;99.90;;;;;;5041532;28;20058;-77
2021/09/07 05:23:41;;;;;;;11.40;8.00;;;17.30;99.90;;;;;;5054837;28;20055;-77
2021/09/07 05:26:07;;;;;;;12.90;8.25;;;17.50;99.90;;;;;;5065576;28;20045;-76
2021/09/07 05:28:33;;;;;;;12.32;7.45;;;17.60;99.90;;;;;;5067032;28;20044;-77
2021/09/07 05:30:59;;;;;;;13.15;8.15;;;17.70;99.90;;;;;;5072246;28;20551;-77
2021/09/07 05:33:25;;;;;;;12.68;7.65;;;17.70;99.90;;;;;;5052016;28;20047;-78
2021/09/07 05:35:51;;;;;;;14.05;8.93;;;17.70;99.90;;;;;;5065039;28;20044;-78
2021/09/07 05:38:18;;;;;;;12.40;7.63;;;17.80;99.90;;;;;;5043592;28;20455;-78
2021/09/07 05:40:43;;;;;;;13.30;7.78;;;17.80;99.90;;;;;;5056058;28;20047;-78
2021/09/07 05:43:09;;;;;;;17.23;8.95;;;17.90;99.90;;;;;;5058889;28;20049;-77
2021/09/07 05:45:35;;;;;;;13.00;8.48;;;17.90;99.90;;;;;;5058763;28;20438;-78
2021/09/07 05:48:00;;;;;;;16.35;10.45;;;17.90;99.90;;;;;;5055444;28;20036;-78
2021/09/07 05:50:26;;;;;;;11.75;8.30;;;18.00;99.90;;;;;;5068259;28;20063;-78
2021/09/07 05:52:52;;;;;;;10.15;7.65;;;18.00;99.90;;;;;;5068501;28;20127;-78
2021/09/07 05:55:17;;;;;;;13.18;7.97;;;18.10;99.90;;;;;;5070257;28;20046;-77
2021/09/07 05:57:44;;;;;;;12.23;8.00;;;18.10;99.90;;;;;;5069608;28;20371;-76
2021/09/07 06:00:10;;;;;;;13.15;8.82;;;18.10;99.90;;;;;;5072008;28;20043;-77
2021/09/07 06:02:36;;;;;;;13.75;8.25;;;18.10;99.90;;;;;;5071166;28;20045;-78
2021/09/07 06:05:03;;;;;;;12.95;7.63;;;18.10;99.90;;;;;;5068873;28;20135;-76
2021/09/07 06:07:29;;;;;;;10.85;7.90;;;18.20;99.90;;;;;;5053948;28;20474;-77
2021/09/07 06:09:55;;;;;;;18.35;7.90;;;18.20;99.90;;;;;;5073223;28;20063;-76
2021/09/07 06:12:20;;;;;;;10.93;8.23;;;18.20;99.90;;;;;;5054557;28;20084;-76
2021/09/07 06:14:46;;;;;;;12.18;8.50;;;18.30;99.90;;;;;;5071986;28;20044;-77
2021/09/07 06:17:12;;;;;;;17.35;10.40;;;18.20;99.90;;;;;;5066939;28;20051;-77
2021/09/07 06:19:37;;;;;;;12.07;8.27;;;18.20;99.90;;;;;;5071835;28;20483;-78
2021/09/07 06:22:04;;;;;;;11.85;7.22;;;18.30;99.90;;;;;;5070948;28;20044;-76
2021/09/07 06:24:29;;;;;;;16.42;9.68;;;18.20;99.90;;;;;;5069836;28;20056;-78
2021/09/07 06:26:55;;;;;;;10.25;7.57;;;18.30;99.90;;;;;;5051472;28;20082;-79
2021/09/07 06:29:21;;;;;;;10.93;7.25;;;18.30;99.90;;;;;;5069570;28;20041;-77
2021/09/07 06:31:47;;;;;;;13.73;7.32;;;18.30;99.90;;;;;;5068828;28;20025;-77
2021/09/07 06:34:12;;;;;;;16.20;7.38;;;18.20;99.90;;;;;;5069023;28;20078;-76
2021/09/07 06:36:38;;;;;;;13.38;7.57;;;18.30;99.90;;;;;;5041845;28;20144;-78
2021/09/07 06:39:03;;;;;;;18.23;10.38;;;18.40;99.90;;;;;;5068857;28;20092;-76
2021/09/07 06:41:29;;;;;;;12.80;8.50;;;18.30;99.90;;;;;;5066902;28;20036;-78
2021/09/07 06:43:55;;;;;;;15.52;9.20;;;18.40;99.90;;;;;;5062061;28;20111;-78
2021/09/07 06:46:20;;;;;;;15.90;9.55;;;18.40;99.90;;;;;;5069080;28;20441;-77
2021/09/07 06:48:46;;;;;;;13.40;8.27;;;18.30;99.90;;;;;;5052189;28;20127;-78
2021/09/07 06:51:12;;;;;;;11.18;8.18;;;18.40;99.90;;;;;;5051571;28;20125;-77
2021/09/07 06:53:38;;;;;;;13.98;7.30;;;18.40;99.90;;;;;;5067339;28;20053;-77
2021/09/07 06:56:03;;;;;;;10.50;7.88;;;18.40;99.90;;;;;;5068686;28;20047;-77
2021/09/07 06:58:29;;;;;;;13.63;7.22;;;18.40;99.90;;;;;;5049886;28;20056;-77
2021/09/07 07:00:55;;;;;;;16.88;7.18;;;18.40;99.90;;;;;;5063391;28;20451;-77
2021/09/07 07:03:20;;;;;;;17.27;8.27;;;18.40;99.90;;;;;;5046740;28;20342;-77
2021/09/07 07:05:46;;;;;;;12.82;7.35;;;18.40;99.90;;;;;;5068603;28;20048;-78
2021/09/07 07:08:12;;;;;;;10.27;7.22;;;18.40;99.90;;;;;;5053295;28;20151;-78
2021/09/07 07:10:37;;;;;;;11.93;8.05;;;18.40;99.90;;;;;;5059954;28;20041;-77
2021/09/07 07:13:04;;;;;;;15.60;9.90;;;18.40;99.90;;;;;;5063307;28;20128;-83
2021/09/07 07:15:30;;;;;;;16.33;10.65;;;18.40;99.90;;;;;;5034270;28;20051;-81
2021/09/07 07:17:58;;;;;;;19.48;11.30;;;18.00;99.90;;;;;;5047467;28;20139;-82
2021/09/07 07:20:24;;;;;;;16.45;10.82;;;17.90;99.90;;;;;;5061941;28;20072;-82
2021/09/07 07:22:50;;;;;;;16.13;11.10;;;17.80;99.90;;;;;;5059017;28;20080;-83
2021/09/07 07:25:16;;;;;;;23.25;12.40;;;17.70;99.90;;;;;;5087540;28;20109;-84
2021/09/07 07:27:42;;;;;;;16.90;11.25;;;17.60;99.90;;;;;;5055312;28;20046;-82
2021/09/07 07:30:10;;;;;;;17.17;11.40;;;17.60;99.90;;;;;;5092403;28;20039;-81
2021/09/07 07:32:35;;;;;;;19.30;11.50;;;17.60;99.90;;;;;;5079334;28;20131;-80
2021/09/07 07:35:03;;;;;;;17.63;11.85;;;17.60;99.90;;;;;;5056865;28;20123;-82
2021/09/07 07:37:28;;;;;;;18.27;11.40;;;17.70;99.90;;;;;;5056541;28;20060;-83
2021/09/07 07:39:54;;;;;;;21.48;12.55;;;17.60;99.90;;;;;;5074400;28;20055;-81
2021/09/07 07:42:20;;;;;;;21.35;11.85;;;17.70;99.90;;;;;;5066107;28;20105;-82
2021/09/07 07:44:47;;;;;;;21.75;12.30;;;17.70;99.90;;;;;;5074629;28;20445;-82
2021/09/07 07:47:13;;;;;;;15.70;11.55;;;17.80;99.90;;;;;;5056587;28;20205;-82
2021/09/07 07:49:39;;;;;;;18.38;11.70;;;17.80;99.90;;;;;;5056438;28;20220;-81
2021/09/07 07:52:04;;;;;;;16.48;11.77;;;17.90;99.90;;;;;;5069356;28;20059;-81
2021/09/07 07:54:30;;;;;;;17.98;12.30;;;17.90;99.90;;;;;;5042654;28;20060;-82
2021/09/07 07:56:56;;;;;;;20.20;12.13;;;18.00;99.90;;;;;;5050051;28;20043;-81
2021/09/07 07:59:21;;;;;;;19.17;12.52;;;18.00;99.90;;;;;;5055465;28;20072;-81
2021/09/07 08:01:47;;;;;;;18.20;11.82;;;18.20;99.90;;;;;;5068335;28;20550;-82
2021/09/07 08:04:14;;;;;;;20.70;12.75;;;18.20;99.90;;;;;;5053357;28;20044;-83
2021/09/07 08:06:40;;;;;;;21.95;12.65;;;18.30;99.90;;;;;;5056411;28;20424;-81
2021/09/07 08:09:06;;;;;;;18.88;12.80;;;18.40;99.90;;;;;;5067364;28;20093;-79
2021/09/07 08:11:32;;;;;;;20.33;12.60;;;18.40;99.90;;;;;;5055701;28;20558;-82
2021/09/07 08:13:58;;;;;;;19.25;12.68;;;18.40;99.90;;;;;;5069903;28;20150;-82
2021/09/07 08:16:24;;;;;;;17.88;11.90;;;18.50;99.90;;;;;;5055231;28;20051;-79
2021/09/07 08:18:50;;;;;;;20.10;11.57;;;18.60;99.90;;;;;;5051549;28;20044;-80
2021/09/07 08:21:16;;;;;;;18.95;12.80;;;18.60;99.90;;;;;;5051718;28;20056;-82
2021/09/07 08:23:41;;;;;;;19.60;11.93;;;18.70;99.90;;;;;;5054299;28;20093;-79
2021/09/07 08:26:07;;;;;;;25.00;12.40;;;18.80;99.90;;;;;;5068573;28;20127;-83
2021/09/07 08:28:33;;;;;;;21.70;12.38;;;18.80;99.90;;;;;;5066400;28;20040;-82
2021/09/07 08:30:58;;;;;;;18.20;12.05;;;18.90;99.90;;;;;;5048268;28;20040;-83
2021/09/07 08:33:24;;;;;;;17.90;11.07;;;19.00;99.90;;;;;;5062367;28;20562;-83
2021/09/07 08:35:50;;;;;;;19.63;12.27;;;19.00;99.90;;;;;;5045596;28;20459;-87
2021/09/07 08:38:16;;;;;;;17.80;11.82;;;19.20;99.90;;;;;;5049113;28;20040;-80
2021/09/07 08:40:42;;;;;;;19.38;11.57;;;19.30;99.90;;;;;;5069135;28;20040;-83
2021/09/07 08:43:08;;;;;;;16.80;11.48;;;19.50;99.90;;;;;;5080852;28;20102;-81
2021/09/07 08:45:34;;;;;;;17.13;11.70;;;19.50;99.90;;;;;;5059382;28;20110;-80
2021/09/07 08:48:02;;;;;;;18.92;10.73;;;19.60;99.90;;;;;;5072295;28;20528;-84
2021/09/07 08:50:29;;;;;;;17.45;11.68;;;19.70;99.90;;;;;;5068806;28;20044;-81
2021/09/07 08:52:56;;;;;;;19.08;11.65;;;19.70;99.90;;;;;;5091830;28;20048;-81
2021/09/07 08:55:22;;;;;;;17.95;12.30;;;19.90;99.90;;;;;;5065875;28;20110;-81
2021/09/07 08:57:48;;;;;;;21.80;11.73;;;20.00;99.90;;;;;;5053741;28;20527;-86
2021/09/07 09:00:13;;;;;;;16.40;11.05;;;20.00;99.90;;;;;;5073056;28;20040;-84
2021/09/07 09:02:43;;;;;;;19.02;11.75;;;20.10;99.90;;;;;;5055534;28;20040;-82
2021/09/07 09:05:10;;;;;;;19.27;12.65;;;20.30;99.90;;;;;;5070317;28;20031;-82
2021/09/07 09:07:37;;;;;;;19.98;11.15;;;20.40;99.90;;;;;;5044204;28;20098;-79
2021/09/07 09:10:04;;;;;;;20.08;12.00;;;20.40;99.90;;;;;;5048794;28;20142;-83
2021/09/07 09:12:36;;;;;;;14.55;10.73;;;20.50;99.90;;;;;;5066566;28;20032;-81
2021/09/07 09:15:10;;;;;;;17.13;11.05;;;20.60;99.90;;;;;;5060718;28;20044;-84
2021/09/07 09:17:36;;;;;;;15.98;11.55;;;20.70;99.90;;;;;;5056272;28;20048;-81
2021/09/07 09:20:07;;;;;;;16.33;11.50;;;20.80;99.90;;;;;;5062535;28;20043;-80
2021/09/07 09:22:52;;;;;;;18.60;10.80;;;20.90;99.90;;;;;;5078084;28;20043;-85
2021/09/07 09:28:34;;;;;;;15.80;10.30;;;20.90;99.90;;;;;;5076930;28;20345;-78
2021/09/07 09:31:01;;;;;;;14.15;9.95;;;21.00;99.90;;;;;;5056105;28;20036;-81
2021/09/07 09:33:28;;;;;;;13.82;9.77;;;21.00;99.90;;;;;;5073102;28;20044;-81
2021/09/07 09:35:59;;;;;;;19.20;9.68;;;21.10;99.90;;;;;;5054852;28;20129;-81
2021/09/07 09:38:33;;;;;;;12.07;9.15;;;21.20;99.90;;;;;;5069825;28;20051;-80
2021/09/07 09:41:01;;;;;;;16.98;9.73;;;21.40;99.90;;;;;;5071879;28;20036;-83
2021/09/07 09:43:36;;;;;;;14.27;9.65;;;21.50;99.90;;;;;;5057231;28;20090;-80
2021/09/07 09:46:22;;;;;;;14.43;9.45;;;21.50;99.90;;;;;;5067895;28;20051;-80
2021/09/07 09:48:48;;;;;;;19.92;9.70;;;21.70;99.90;;;;;;5062204;28;20483;-82
2021/09/07 09:51:17;;;;;;;14.85;9.55;;;21.80;99.90;;;;;;5074173;28;20040;-83
2021/09/07 09:53:49;;;;;;;16.65;9.48;;;21.90;99.90;;;;;;5071941;28;20424;-85
2021/09/07 09:56:15;;;;;;;13.75;9.35;;;22.00;99.90;;;;;;5070607;28;20467;-81
2021/09/07 09:58:42;;;;;;;14.45;9.38;;;22.00;99.90;;;;;;5070591;28;20040;-85
2021/09/07 10:01:08;;;;;;;13.77;9.18;;;22.20;99.90;;;;;;5056510;28;20052;-79
2021/09/07 10:03:37;;;;;;;18.88;9.52;;;22.30;99.90;;;;;;5076090;28;20086;-78
2021/09/07 10:06:03;;;;;;;15.52;9.80;;;22.50;99.90;;;;;;5057468;28;20081;-78
2021/09/07 10:08:28;;;;;;;16.38;9.60;;;22.60;99.90;;;;;;5056147;28;20055;-81
2021/09/07 10:11:01;;;;;;;12.80;8.80;;;22.70;99.90;;;;;;5055407;28;20060;-78
2021/09/07 10:13:29;;;;;;;13.93;9.77;;;22.90;99.90;;;;;;5050574;28;20145;-79
2021/09/07 10:16:02;;;;;;;11.98;8.32;;;23.00;99.90;;;;;;5059261;28;20414;-83
2021/09/07 10:26:44;;;;;;;14.75;10.50;;;23.60;99.90;;;;;;5073641;28;20040;-81
2021/09/07 10:29:39;;;;;;;15.10;9.45;;;23.60;99.90;;;;;;5056593;28;20438;-79
2021/09/07 10:32:26;;;;;;;16.05;10.45;;;23.70;99.90;;;;;;5067108;28;20031;-80
2021/09/07 10:35:11;;;;;;;14.95;10.23;;;24.10;99.90;;;;;;5088337;28;20044;-79
2021/09/07 10:37:56;;;;;;;;;;;24.20;99.90;;;;;;5052078;28;20135;-81
2021/09/07 10:40:45;;;;;;;19.05;10.02;;;24.20;99.90;;;;;;5055486;28;19920;-81
2021/09/07 10:43:12;;;;;;;13.50;9.80;;;24.50;99.90;;;;;;5054231;28;20047;-79
2021/09/07 10:45:39;;;;;;;12.57;8.88;;;24.60;99.90;;;;;;5052272;28;20131;-82
2021/09/07 10:48:31;;;;;;;19.55;9.32;;;24.70;99.90;;;;;;5074726;28;20054;-80
2021/09/07 10:50:59;;;;;;;12.98;9.57;;;24.90;99.90;;;;;;5069921;28;20036;-79
2021/09/07 10:53:25;;;;;;;15.88;9.77;;;24.90;99.90;;;;;;5055040;28;20056;-80
2021/09/07 10:55:50;;;;;;;21.52;10.57;;;25.00;99.90;;;;;;5060036;28;20136;-81
2021/09/07 10:58:33;;;;;;;19.70;9.85;;;25.10;99.90;;;;;;5065104;28;20606;-82
2021/09/07 11:01:29;;;;;;;15.77;10.10;;;25.20;99.90;;;;;;5054733;28;20067;-81
2021/09/07 11:04:32;;;;;;;12.70;9.75;;;25.60;99.90;;;;;;4975040;28;20177;-83
2021/09/07 11:07:18;;;;;;;17.45;9.75;;;25.70;99.90;;;;;;4967445;28;20069;-82
2021/09/07 11:09:51;;;;;;;13.60;9.73;;;25.90;99.90;;;;;;4974059;28;20050;-80
2021/09/07 11:12:32;;;;;;;15.90;9.65;;;26.00;99.90;;;;;;4958672;28;20125;-79
2021/09/07 11:15:08;;;;;;;14.70;10.52;;;26.00;99.90;;;;;;4974352;28;20136;-81
2021/09/07 11:17:34;;;;;;;12.05;9.65;;;26.10;99.90;;;;;;4974183;28;20077;-79
2021/09/07 11:20:06;;;;;;;15.65;10.23;;;26.20;99.90;;;;;;4975883;28;20034;-81
2021/09/07 11:22:33;;;;;;;15.07;10.65;;;26.00;99.90;;;;;;4972648;28;20161;-80
2021/09/07 11:25:09;;;;;;;14.60;10.10;;;26.00;99.90;;;;;;4990284;28;20054;-82
2021/09/07 11:27:56;;;;;;;12.48;10.15;;;26.00;99.90;;;;;;4971516;28;20054;-78
2021/09/07 11:30:36;;;;;;;17.67;10.80;;;25.80;99.90;;;;;;4971712;28;20133;-80
2021/09/07 11:33:02;;;;;;;15.45;9.60;;;25.90;99.90;;;;;;4971028;28;20054;-80
2021/09/07 11:35:29;;;;;;;11.20;9.80;;;26.00;99.90;;;;;;4974595;28;20050;-80
2021/09/07 11:38:00;;;;;;;15.38;10.75;;;26.00;99.90;;;;;;4957408;28;20066;-80
2021/09/07 11:40:26;;;;;;;11.23;9.30;;;26.00;99.90;;;;;;5004079;28;20067;-79
2021/09/07 11:42:52;;;;;;;12.60;9.65;;;26.20;99.90;;;;;;5073851;28;20055;-80
2021/09/07 11:45:27;;;;;;;13.80;9.30;;;26.20;99.90;;;;;;5075994;28;20074;-80
2021/09/07 11:47:54;;;;;;;12.77;9.45;;;26.50;99.90;;;;;;5076437;28;20048;-80
2021/09/07 11:50:27;;;;;;;14.93;10.32;;;26.90;99.90;;;;;;5060292;28;20048;-78
2021/09/07 11:52:53;;;;;;;18.83;10.80;;;26.90;99.90;;;;;;5074476;28;20039;-75
2021/09/07 11:55:43;;;;;;;18.30;9.90;;;27.00;99.90;;;;;;5056346;28;20040;-77
2021/09/07 11:58:10;;;;;;;15.32;10.73;;;27.10;99.90;;;;;;5066651;28;20048;-78
2021/09/07 12:00:36;;;;;;;14.07;9.77;;;27.20;99.90;;;;;;5042106;28;20119;-78
2021/09/07 12:03:16;;;;;;;16.83;10.18;;;27.30;99.90;;;;;;5053752;28;20094;-80
2021/09/07 12:05:50;;;;;;;13.93;9.68;;;27.50;99.90;;;;;;5054516;28;20032;-76
2021/09/07 12:08:16;;;;;;;13.73;8.85;;;27.70;99.90;;;;;;5070440;28;20123;-79
2021/09/07 12:10:55;;;;;;;15.20;9.40;;;27.90;99.90;;;;;;5055503;28;20126;-77
2021/09/07 12:13:22;;;;;;;13.65;8.88;;;28.20;99.90;;;;;;5057914;28;20044;-78
2021/09/07 12:15:49;;;;;;;14.77;10.02;;;28.30;99.90;;;;;;5076048;28;20040;-77
2021/09/07 12:18:34;;;;;;;13.20;9.75;;;28.30;99.90;;;;;;5045401;28;20488;-78
2021/09/07 12:21:10;;;;;;;12.80;9.90;;;28.20;99.90;;;;;;5054921;28;20398;-78
2021/09/07 12:23:39;;;;;;;14.60;9.73;;;28.20;99.90;;;;;;5052159;28;20044;-80
2021/09/07 12:26:05;;;;;;;16.05;9.93;;;28.30;99.90;;;;;;5072600;28;20052;-80
2021/09/07 12:28:31;;;;;;;17.60;9.52;;;28.20;99.90;;;;;;5069713;28;20052;-79
2021/09/07 12:31:13;;;;;;;12.85;9.65;;;28.30;99.90;;;;;;5088156;28;20066;-81
2021/09/07 12:33:42;;;;;;;12.57;9.75;;;28.70;99.90;;;;;;5083983;28;20075;-79
2021/09/07 12:36:08;;;;;;;11.65;9.20;;;28.90;99.90;;;;;;5073676;28;20145;-78
2021/09/07 12:38:35;;;;;;;14.95;9.43;;;29.10;99.90;;;;;;5036493;28;20052;-79
2021/09/07 12:41:05;;;;;;;13.40;9.75;;;29.10;99.90;;;;;;5056796;28;20189;-79
2021/09/07 12:43:43;;;;;;;17.85;10.40;;;29.20;99.40;;;;;;5068497;28;20033;-80
2021/09/07 12:46:17;;;;;;;11.60;9.40;;;29.10;98.60;;;;;;5042082;28;20083;-78